sensor_id;sensor_type;location;lat;lon;timestamp;P1;durP1;ratioP1;P2;durP2;ratioP2
68074;SDS011;54864;52.002;5.468;2023-09-12T00:00:44;42.20;;;33.47;;
68074;SDS011;54864;52.002;5.468;2023-09-12T00:01:46;39.17;;;32.00;;
68074;SDS011;54864;52.002;5.468;2023-09-12T00:02:47;41.20;;;31.88;;
68074;SDS011;54864;52.002;5.468;2023-09-12T00:03:49;42.75;;;31.20;;
68074;SDS011;54864;52.002;5.468;2023-09-12T00:04:50;41.33;;;30.70;;
68074;SDS011;54864;52.002;5.468;2023-09-12T00:05:52;39.80;;;31.75;;
68074;SDS011;54864;52.002;5.468;2023-09-12T00:06:53;41.25;;;32.63;;
68074;SDS011;54864;52.002;5.468;2023-09-12T00:07:54;40.72;;;31.52;;
68074;SDS011;54864;52.002;5.468;2023-09-12T00:08:55;40.37;;;31.67;;
68074;SDS011;54864;52.002;5.468;2023-09-12T00:09:57;39.58;;;31.58;;
68074;SDS011;54864;52.002;5.468;2023-09-12T00:10:58;39.50;;;30.77;;
68074;SDS011;54864;52.002;5.468;2023-09-12T00:12:01;42.10;;;31.42;;
68074;SDS011;54864;52.002;5.468;2023-09-12T00:13:03;40.30;;;29.67;;
68074;SDS011;54864;52.002;5.468;2023-09-12T00:14:04;37.40;;;29.27;;
68074;SDS011;54864;52.002;5.468;2023-09-12T00:15:08;41.95;;;30.52;;
68074;SDS011;54864;52.002;5.468;2023-09-12T00:16:09;42.08;;;30.60;;
68074;SDS011;54864;52.002;5.468;2023-09-12T00:17:11;37.22;;;27.98;;
68074;SDS011;54864;52.002;5.468;2023-09-12T00:18:11;39.08;;;30.60;;
68074;SDS011;54864;52.002;5.468;2023-09-12T00:19:13;41.72;;;28.33;;
68074;SDS011;54864;52.002;5.468;2023-09-12T00:20:14;45.53;;;32.05;;
68074;SDS011;54864;52.002;5.468;2023-09-12T00:21:16;44.30;;;31.90;;
68074;SDS011;54864;52.002;5.468;2023-09-12T00:22:17;40.80;;;31.65;;
68074;SDS011;54864;52.002;5.468;2023-09-12T00:23:20;43.42;;;31.52;;
68074;SDS011;54864;52.002;5.468;2023-09-12T00:24:21;41.97;;;32.30;;
68074;SDS011;54864;52.002;5.468;2023-09-12T00:25:22;38.97;;;29.25;;
68074;SDS011;54864;52.002;5.468;2023-09-12T00:26:24;43.45;;;32.15;;
68074;SDS011;54864;52.002;5.468;2023-09-12T00:27:27;38.53;;;30.75;;
68074;SDS011;54864;52.002;5.468;2023-09-12T00:28:28;40.17;;;31.08;;
68074;SDS011;54864;52.002;5.468;2023-09-12T00:29:29;39.90;;;30.45;;
68074;SDS011;54864;52.002;5.468;2023-09-12T00:30:31;38.30;;;30.52;;
68074;SDS011;54864;52.002;5.468;2023-09-12T00:31:32;42.53;;;30.70;;
68074;SDS011;54864;52.002;5.468;2023-09-12T00:32:33;39.97;;;30.65;;
68074;SDS011;54864;52.002;5.468;2023-09-12T00:33:34;40.67;;;31.30;;
68074;SDS011;54864;52.002;5.468;2023-09-12T00:34:36;46.22;;;32.92;;
68074;SDS011;54864;52.002;5.468;2023-09-12T00:35:37;43.63;;;31.42;;
68074;SDS011;54864;52.002;5.468;2023-09-12T00:36:37;44.50;;;33.80;;
68074;SDS011;54864;52.002;5.468;2023-09-12T00:37:39;44.08;;;33.00;;
68074;SDS011;54864;52.002;5.468;2023-09-12T00:38:41;42.72;;;32.65;;
68074;SDS011;54864;52.002;5.468;2023-09-12T00:39:42;44.13;;;33.63;;
68074;SDS011;54864;52.002;5.468;2023-09-12T00:40:43;43.13;;;33.08;;
68074;SDS011;54864;52.002;5.468;2023-09-12T00:41:47;45.35;;;33.40;;
68074;SDS011;54864;52.002;5.468;2023-09-12T00:42:49;42.60;;;32.92;;
68074;SDS011;54864;52.002;5.468;2023-09-12T00:43:51;43.40;;;31.98;;
68074;SDS011;54864;52.002;5.468;2023-09-12T00:44:52;44.97;;;33.10;;
68074;SDS011;54864;52.002;5.468;2023-09-12T00:45:54;45.65;;;33.65;;
68074;SDS011;54864;52.002;5.468;2023-09-12T00:46:55;48.10;;;35.38;;
68074;SDS011;54864;52.002;5.468;2023-09-12T00:47:58;45.97;;;33.80;;
68074;SDS011;54864;52.002;5.468;2023-09-12T00:49:00;46.83;;;33.63;;
68074;SDS011;54864;52.002;5.468;2023-09-12T00:50:04;46.30;;;33.58;;
68074;SDS011;54864;52.002;5.468;2023-09-12T00:51:07;44.72;;;34.13;;
68074;SDS011;54864;52.002;5.468;2023-09-12T00:52:09;45.47;;;33.77;;
68074;SDS011;54864;52.002;5.468;2023-09-12T00:53:11;45.47;;;34.30;;
68074;SDS011;54864;52.002;5.468;2023-09-12T00:54:13;43.97;;;33.80;;
68074;SDS011;54864;52.002;5.468;2023-09-12T00:55:14;44.97;;;34.57;;
68074;SDS011;54864;52.002;5.468;2023-09-12T00:56:15;43.88;;;33.65;;
68074;SDS011;54864;52.002;5.468;2023-09-12T00:57:17;44.70;;;34.58;;
68074;SDS011;54864;52.002;5.468;2023-09-12T00:58:20;41.42;;;32.90;;
68074;SDS011;54864;52.002;5.468;2023-09-12T00:59:22;43.78;;;32.83;;
68074;SDS011;54864;52.002;5.468;2023-09-12T01:00:23;45.85;;;34.08;;
68074;SDS011;54864;52.002;5.468;2023-09-12T01:01:25;43.53;;;31.65;;
68074;SDS011;54864;52.002;5.468;2023-09-12T01:02:26;44.00;;;33.50;;
68074;SDS011;54864;52.002;5.468;2023-09-12T01:03:27;48.28;;;36.55;;
68074;SDS011;54864;52.002;5.468;2023-09-12T01:04:29;47.72;;;35.25;;
68074;SDS011;54864;52.002;5.468;2023-09-12T01:05:30;44.70;;;33.00;;
68074;SDS011;54864;52.002;5.468;2023-09-12T01:06:32;45.67;;;33.15;;
68074;SDS011;54864;52.002;5.468;2023-09-12T01:07:34;43.30;;;31.88;;
68074;SDS011;54864;52.002;5.468;2023-09-12T01:08:37;46.00;;;34.70;;
68074;SDS011;54864;52.002;5.468;2023-09-12T01:09:40;43.92;;;33.67;;
68074;SDS011;54864;52.002;5.468;2023-09-12T01:10:42;49.70;;;35.20;;
68074;SDS011;54864;52.002;5.468;2023-09-12T01:11:46;40.85;;;32.10;;
68074;SDS011;54864;52.002;5.468;2023-09-12T01:12:48;44.65;;;33.95;;
68074;SDS011;54864;52.002;5.468;2023-09-12T01:13:50;47.17;;;33.90;;
68074;SDS011;54864;52.002;5.468;2023-09-12T01:14:52;45.40;;;34.10;;
68074;SDS011;54864;52.002;5.468;2023-09-12T01:15:53;46.28;;;34.30;;
68074;SDS011;54864;52.002;5.468;2023-09-12T01:16:55;50.85;;;36.53;;
68074;SDS011;54864;52.002;5.468;2023-09-12T01:17:56;45.58;;;35.03;;
68074;SDS011;54864;52.002;5.468;2023-09-12T01:18:58;45.22;;;33.58;;
68074;SDS011;54864;52.002;5.468;2023-09-12T01:19:59;46.78;;;34.72;;
68074;SDS011;54864;52.002;5.468;2023-09-12T01:21:10;46.42;;;35.42;;
68074;SDS011;54864;52.002;5.468;2023-09-12T01:22:35;43.50;;;33.05;;
68074;SDS011;54864;52.002;5.468;2023-09-12T01:23:51;44.25;;;33.53;;
68074;SDS011;54864;52.002;5.468;2023-09-12T01:25:12;45.67;;;33.90;;
68074;SDS011;54864;52.002;5.468;2023-09-12T01:26:29;46.63;;;33.85;;
68074;SDS011;54864;52.002;5.468;2023-09-12T01:27:38;49.50;;;36.13;;
68074;SDS011;54864;52.002;5.468;2023-09-12T01:28:43;46.80;;;33.83;;
68074;SDS011;54864;52.002;5.468;2023-09-12T01:29:45;48.45;;;34.70;;
68074;SDS011;54864;52.002;5.468;2023-09-12T01:30:48;51.50;;;35.83;;
68074;SDS011;54864;52.002;5.468;2023-09-12T01:31:51;47.35;;;35.10;;
68074;SDS011;54864;52.002;5.468;2023-09-12T01:32:55;48.17;;;34.60;;
68074;SDS011;54864;52.002;5.468;2023-09-12T01:33:56;47.72;;;34.97;;
68074;SDS011;54864;52.002;5.468;2023-09-12T01:34:58;42.65;;;32.75;;
68074;SDS011;54864;52.002;5.468;2023-09-12T01:35:59;43.22;;;33.47;;
68074;SDS011;54864;52.002;5.468;2023-09-12T01:37:01;45.45;;;33.45;;
68074;SDS011;54864;52.002;5.468;2023-09-12T01:38:02;46.53;;;33.97;;
68074;SDS011;54864;52.002;5.468;2023-09-12T01:39:04;44.03;;;33.38;;
68074;SDS011;54864;52.002;5.468;2023-09-12T01:40:05;44.35;;;32.42;;
68074;SDS011;54864;52.002;5.468;2023-09-12T01:41:07;47.65;;;34.13;;
68074;SDS011;54864;52.002;5.468;2023-09-12T01:42:10;48.08;;;33.58;;
68074;SDS011;54864;52.002;5.468;2023-09-12T01:43:17;46.42;;;33.33;;
68074;SDS011;54864;52.002;5.468;2023-09-12T01:44:24;46.08;;;34.28;;
68074;SDS011;54864;52.002;5.468;2023-09-12T01:45:25;45.15;;;34.17;;
68074;SDS011;54864;52.002;5.468;2023-09-12T01:46:28;48.13;;;33.88;;
68074;SDS011;54864;52.002;5.468;2023-09-12T01:47:31;43.67;;;33.72;;
68074;SDS011;54864;52.002;5.468;2023-09-12T01:48:37;48.20;;;32.38;;
68074;SDS011;54864;52.002;5.468;2023-09-12T01:49:41;49.33;;;34.10;;
68074;SDS011;54864;52.002;5.468;2023-09-12T01:50:45;48.13;;;34.83;;
68074;SDS011;54864;52.002;5.468;2023-09-12T01:51:46;43.42;;;32.08;;
68074;SDS011;54864;52.002;5.468;2023-09-12T01:52:48;43.78;;;32.15;;
68074;SDS011;54864;52.002;5.468;2023-09-12T01:53:49;44.95;;;32.28;;
68074;SDS011;54864;52.002;5.468;2023-09-12T01:54:52;46.03;;;33.38;;
68074;SDS011;54864;52.002;5.468;2023-09-12T01:55:54;45.05;;;33.13;;
68074;SDS011;54864;52.002;5.468;2023-09-12T01:56:57;41.55;;;32.17;;
68074;SDS011;54864;52.002;5.468;2023-09-12T01:57:59;43.67;;;31.52;;
68074;SDS011;54864;52.002;5.468;2023-09-12T01:59:02;45.08;;;32.22;;
68074;SDS011;54864;52.002;5.468;2023-09-12T02:00:04;41.40;;;31.50;;
68074;SDS011;54864;52.002;5.468;2023-09-12T02:01:06;41.50;;;31.13;;
68074;SDS011;54864;52.002;5.468;2023-09-12T02:02:07;39.87;;;31.67;;
68074;SDS011;54864;52.002;5.468;2023-09-12T02:03:09;49.33;;;34.78;;
68074;SDS011;54864;52.002;5.468;2023-09-12T02:04:09;46.53;;;34.67;;
68074;SDS011;54864;52.002;5.468;2023-09-12T02:05:12;45.88;;;35.33;;
68074;SDS011;54864;52.002;5.468;2023-09-12T02:06:18;50.22;;;35.17;;
68074;SDS011;54864;52.002;5.468;2023-09-12T02:07:20;46.38;;;35.28;;
68074;SDS011;54864;52.002;5.468;2023-09-12T02:08:23;52.00;;;36.90;;
68074;SDS011;54864;52.002;5.468;2023-09-12T02:09:25;48.63;;;35.00;;
68074;SDS011;54864;52.002;5.468;2023-09-12T02:10:26;52.47;;;35.30;;
68074;SDS011;54864;52.002;5.468;2023-09-12T02:11:27;48.50;;;35.60;;
68074;SDS011;54864;52.002;5.468;2023-09-12T02:12:28;46.55;;;34.63;;
68074;SDS011;54864;52.002;5.468;2023-09-12T02:13:30;45.40;;;34.53;;
68074;SDS011;54864;52.002;5.468;2023-09-12T02:14:32;49.78;;;34.67;;
68074;SDS011;54864;52.002;5.468;2023-09-12T02:15:34;46.72;;;34.75;;
68074;SDS011;54864;52.002;5.468;2023-09-12T02:16:35;46.42;;;34.03;;
68074;SDS011;54864;52.002;5.468;2023-09-12T02:17:38;45.25;;;32.22;;
68074;SDS011;54864;52.002;5.468;2023-09-12T02:18:39;45.45;;;33.75;;
68074;SDS011;54864;52.002;5.468;2023-09-12T02:19:41;49.70;;;37.25;;
68074;SDS011;54864;52.002;5.468;2023-09-12T02:20:41;52.73;;;37.43;;
68074;SDS011;54864;52.002;5.468;2023-09-12T02:21:46;50.65;;;36.97;;
68074;SDS011;54864;52.002;5.468;2023-09-12T02:22:47;47.75;;;35.25;;
68074;SDS011;54864;52.002;5.468;2023-09-12T02:23:48;48.72;;;34.70;;
68074;SDS011;54864;52.002;5.468;2023-09-12T02:24:50;52.73;;;35.53;;
68074;SDS011;54864;52.002;5.468;2023-09-12T02:25:51;43.88;;;34.17;;
68074;SDS011;54864;52.002;5.468;2023-09-12T02:26:52;51.33;;;34.53;;
68074;SDS011;54864;52.002;5.468;2023-09-12T02:27:53;49.38;;;34.55;;
68074;SDS011;54864;52.002;5.468;2023-09-12T02:28:55;49.30;;;34.40;;
68074;SDS011;54864;52.002;5.468;2023-09-12T02:29:57;47.72;;;33.88;;
68074;SDS011;54864;52.002;5.468;2023-09-12T02:30:59;46.83;;;33.35;;
68074;SDS011;54864;52.002;5.468;2023-09-12T02:32:00;46.30;;;33.80;;
68074;SDS011;54864;52.002;5.468;2023-09-12T02:33:02;42.30;;;32.83;;
68074;SDS011;54864;52.002;5.468;2023-09-12T02:34:03;46.22;;;34.08;;
68074;SDS011;54864;52.002;5.468;2023-09-12T02:35:04;41.70;;;31.63;;
68074;SDS011;54864;52.002;5.468;2023-09-12T02:36:06;46.72;;;33.92;;
68074;SDS011;54864;52.002;5.468;2023-09-12T02:37:07;44.70;;;30.70;;
68074;SDS011;54864;52.002;5.468;2023-09-12T02:38:09;43.55;;;32.80;;
68074;SDS011;54864;52.002;5.468;2023-09-12T02:39:09;48.53;;;32.72;;
68074;SDS011;54864;52.002;5.468;2023-09-12T02:40:11;44.28;;;33.20;;
68074;SDS011;54864;52.002;5.468;2023-09-12T02:41:14;42.60;;;32.60;;
68074;SDS011;54864;52.002;5.468;2023-09-12T02:42:16;43.17;;;31.98;;
68074;SDS011;54864;52.002;5.468;2023-09-12T02:43:16;47.30;;;33.25;;
68074;SDS011;54864;52.002;5.468;2023-09-12T02:44:18;42.35;;;31.98;;
68074;SDS011;54864;52.002;5.468;2023-09-12T02:45:20;45.15;;;33.55;;
68074;SDS011;54864;52.002;5.468;2023-09-12T02:46:22;45.63;;;32.63;;
68074;SDS011;54864;52.002;5.468;2023-09-12T02:47:23;51.50;;;34.10;;
68074;SDS011;54864;52.002;5.468;2023-09-12T02:48:24;46.83;;;33.50;;
68074;SDS011;54864;52.002;5.468;2023-09-12T02:49:25;51.70;;;36.20;;
68074;SDS011;54864;52.002;5.468;2023-09-12T02:50:27;54.28;;;35.90;;
68074;SDS011;54864;52.002;5.468;2023-09-12T02:51:28;61.47;;;37.85;;
68074;SDS011;54864;52.002;5.468;2023-09-12T02:52:30;57.55;;;38.85;;
68074;SDS011;54864;52.002;5.468;2023-09-12T02:53:31;59.35;;;40.08;;
68074;SDS011;54864;52.002;5.468;2023-09-12T02:54:33;61.00;;;38.97;;
68074;SDS011;54864;52.002;5.468;2023-09-12T02:55:34;58.25;;;39.72;;
68074;SDS011;54864;52.002;5.468;2023-09-12T02:56:41;78.65;;;44.85;;
68074;SDS011;54864;52.002;5.468;2023-09-12T02:57:41;74.80;;;44.80;;
68074;SDS011;54864;52.002;5.468;2023-09-12T02:58:45;69.68;;;41.47;;
68074;SDS011;54864;52.002;5.468;2023-09-12T02:59:46;70.80;;;44.72;;
68074;SDS011;54864;52.002;5.468;2023-09-12T03:00:49;73.32;;;44.10;;
68074;SDS011;54864;52.002;5.468;2023-09-12T03:01:56;75.50;;;46.13;;
68074;SDS011;54864;52.002;5.468;2023-09-12T03:02:57;78.75;;;45.88;;
68074;SDS011;54864;52.002;5.468;2023-09-12T03:04:01;70.30;;;43.58;;
68074;SDS011;54864;52.002;5.468;2023-09-12T03:05:03;83.47;;;48.90;;
68074;SDS011;54864;52.002;5.468;2023-09-12T03:06:05;90.82;;;49.00;;
68074;SDS011;54864;52.002;5.468;2023-09-12T03:07:06;88.70;;;47.88;;
68074;SDS011;54864;52.002;5.468;2023-09-12T03:08:08;72.70;;;45.50;;
68074;SDS011;54864;52.002;5.468;2023-09-12T03:09:09;69.10;;;45.58;;
68074;SDS011;54864;52.002;5.468;2023-09-12T03:10:11;85.65;;;48.58;;
68074;SDS011;54864;52.002;5.468;2023-09-12T03:11:14;74.93;;;46.20;;
68074;SDS011;54864;52.002;5.468;2023-09-12T03:12:15;81.43;;;46.28;;
68074;SDS011;54864;52.002;5.468;2023-09-12T03:13:17;86.60;;;45.97;;
68074;SDS011;54864;52.002;5.468;2023-09-12T03:14:18;79.93;;;46.25;;
68074;SDS011;54864;52.002;5.468;2023-09-12T03:15:19;79.70;;;44.40;;
68074;SDS011;54864;52.002;5.468;2023-09-12T03:16:22;82.97;;;45.15;;
68074;SDS011;54864;52.002;5.468;2023-09-12T03:17:24;77.57;;;44.78;;
68074;SDS011;54864;52.002;5.468;2023-09-12T03:18:25;79.20;;;46.53;;
68074;SDS011;54864;52.002;5.468;2023-09-12T03:19:27;79.38;;;46.15;;
68074;SDS011;54864;52.002;5.468;2023-09-12T03:20:29;73.05;;;45.45;;
68074;SDS011;54864;52.002;5.468;2023-09-12T03:21:31;83.30;;;47.60;;
68074;SDS011;54864;52.002;5.468;2023-09-12T03:22:32;72.65;;;46.78;;
68074;SDS011;54864;52.002;5.468;2023-09-12T03:23:37;67.88;;;45.25;;
68074;SDS011;54864;52.002;5.468;2023-09-12T03:24:38;75.03;;;44.53;;
68074;SDS011;54864;52.002;5.468;2023-09-12T03:25:40;68.07;;;42.90;;
68074;SDS011;54864;52.002;5.468;2023-09-12T03:26:40;73.30;;;43.47;;
68074;SDS011;54864;52.002;5.468;2023-09-12T03:27:42;74.88;;;43.30;;
68074;SDS011;54864;52.002;5.468;2023-09-12T03:28:43;66.13;;;43.80;;
68074;SDS011;54864;52.002;5.468;2023-09-12T03:29:46;65.82;;;39.30;;
68074;SDS011;54864;52.002;5.468;2023-09-12T03:30:48;63.63;;;38.50;;
68074;SDS011;54864;52.002;5.468;2023-09-12T03:31:50;58.40;;;37.53;;
68074;SDS011;54864;52.002;5.468;2023-09-12T03:32:52;58.00;;;37.42;;
68074;SDS011;54864;52.002;5.468;2023-09-12T03:33:53;47.00;;;36.55;;
68074;SDS011;54864;52.002;5.468;2023-09-12T03:34:55;56.10;;;35.28;;
68074;SDS011;54864;52.002;5.468;2023-09-12T03:35:55;48.53;;;35.35;;
68074;SDS011;54864;52.002;5.468;2023-09-12T03:36:57;46.55;;;34.45;;
68074;SDS011;54864;52.002;5.468;2023-09-12T03:37:59;47.03;;;34.85;;
68074;SDS011;54864;52.002;5.468;2023-09-12T03:39:00;49.95;;;35.90;;
68074;SDS011;54864;52.002;5.468;2023-09-12T03:40:06;45.92;;;34.28;;
68074;SDS011;54864;52.002;5.468;2023-09-12T03:41:08;50.53;;;34.65;;
68074;SDS011;54864;52.002;5.468;2023-09-12T03:42:10;57.95;;;34.78;;
68074;SDS011;54864;52.002;5.468;2023-09-12T03:43:11;55.75;;;36.00;;
68074;SDS011;54864;52.002;5.468;2023-09-12T03:44:13;57.83;;;37.67;;
68074;SDS011;54864;52.002;5.468;2023-09-12T03:45:13;55.23;;;38.60;;
68074;SDS011;54864;52.002;5.468;2023-09-12T03:46:15;51.60;;;35.95;;
68074;SDS011;54864;52.002;5.468;2023-09-12T03:47:17;58.88;;;37.42;;
68074;SDS011;54864;52.002;5.468;2023-09-12T03:48:19;57.78;;;36.45;;
68074;SDS011;54864;52.002;5.468;2023-09-12T03:49:20;57.85;;;35.78;;
68074;SDS011;54864;52.002;5.468;2023-09-12T03:50:21;55.80;;;34.57;;
68074;SDS011;54864;52.002;5.468;2023-09-12T03:51:23;58.53;;;36.08;;
68074;SDS011;54864;52.002;5.468;2023-09-12T03:52:24;58.13;;;34.92;;
68074;SDS011;54864;52.002;5.468;2023-09-12T03:53:25;57.38;;;34.30;;
68074;SDS011;54864;52.002;5.468;2023-09-12T03:54:26;50.67;;;32.58;;
68074;SDS011;54864;52.002;5.468;2023-09-12T03:55:28;45.70;;;32.65;;
68074;SDS011;54864;52.002;5.468;2023-09-12T03:56:29;44.40;;;32.25;;
68074;SDS011;54864;52.002;5.468;2023-09-12T03:57:31;44.35;;;32.33;;
68074;SDS011;54864;52.002;5.468;2023-09-12T03:58:32;40.78;;;32.72;;
68074;SDS011;54864;52.002;5.468;2023-09-12T03:59:34;40.60;;;31.63;;
68074;SDS011;54864;52.002;5.468;2023-09-12T04:00:34;44.20;;;32.70;;
68074;SDS011;54864;52.002;5.468;2023-09-12T04:01:36;43.97;;;34.15;;
68074;SDS011;54864;52.002;5.468;2023-09-12T04:02:39;42.83;;;32.03;;
68074;SDS011;54864;52.002;5.468;2023-09-12T04:03:41;49.10;;;34.92;;
68074;SDS011;54864;52.002;5.468;2023-09-12T04:04:41;44.00;;;33.05;;
68074;SDS011;54864;52.002;5.468;2023-09-12T04:05:45;44.92;;;33.33;;
68074;SDS011;54864;52.002;5.468;2023-09-12T04:06:46;42.85;;;31.85;;
68074;SDS011;54864;52.002;5.468;2023-09-12T04:07:48;44.33;;;32.63;;
68074;SDS011;54864;52.002;5.468;2023-09-12T04:08:49;45.42;;;33.00;;
68074;SDS011;54864;52.002;5.468;2023-09-12T04:09:51;43.47;;;33.47;;
68074;SDS011;54864;52.002;5.468;2023-09-12T04:10:51;48.70;;;33.60;;
68074;SDS011;54864;52.002;5.468;2023-09-12T04:11:53;41.03;;;32.60;;
68074;SDS011;54864;52.002;5.468;2023-09-12T04:12:54;47.17;;;32.38;;
68074;SDS011;54864;52.002;5.468;2023-09-12T04:13:56;42.70;;;31.42;;
68074;SDS011;54864;52.002;5.468;2023-09-12T04:14:56;40.37;;;31.53;;
68074;SDS011;54864;52.002;5.468;2023-09-12T04:15:58;41.97;;;31.65;;
68074;SDS011;54864;52.002;5.468;2023-09-12T04:16:59;39.72;;;30.52;;
68074;SDS011;54864;52.002;5.468;2023-09-12T04:18:02;41.95;;;31.35;;
68074;SDS011;54864;52.002;5.468;2023-09-12T04:19:04;41.78;;;32.03;;
68074;SDS011;54864;52.002;5.468;2023-09-12T04:20:06;37.67;;;29.90;;
68074;SDS011;54864;52.002;5.468;2023-09-12T04:21:07;42.95;;;30.83;;
68074;SDS011;54864;52.002;5.468;2023-09-12T04:22:09;41.45;;;31.27;;
68074;SDS011;54864;52.002;5.468;2023-09-12T04:23:09;39.78;;;30.17;;
68074;SDS011;54864;52.002;5.468;2023-09-12T04:24:11;37.90;;;30.30;;
68074;SDS011;54864;52.002;5.468;2023-09-12T04:25:12;36.88;;;28.65;;
68074;SDS011;54864;52.002;5.468;2023-09-12T04:26:14;37.42;;;29.55;;
68074;SDS011;54864;52.002;5.468;2023-09-12T04:27:17;39.15;;;29.00;;
68074;SDS011;54864;52.002;5.468;2023-09-12T04:28:19;36.53;;;28.52;;
68074;SDS011;54864;52.002;5.468;2023-09-12T04:29:20;38.50;;;29.00;;
68074;SDS011;54864;52.002;5.468;2023-09-12T04:30:22;42.10;;;30.23;;
68074;SDS011;54864;52.002;5.468;2023-09-12T04:31:23;42.33;;;28.92;;
68074;SDS011;54864;52.002;5.468;2023-09-12T04:32:25;40.33;;;30.27;;
68074;SDS011;54864;52.002;5.468;2023-09-12T04:33:27;43.20;;;30.65;;
68074;SDS011;54864;52.002;5.468;2023-09-12T04:34:29;33.80;;;27.17;;
68074;SDS011;54864;52.002;5.468;2023-09-12T04:35:32;39.05;;;28.17;;
68074;SDS011;54864;52.002;5.468;2023-09-12T04:36:34;36.88;;;28.45;;
68074;SDS011;54864;52.002;5.468;2023-09-12T04:37:35;39.47;;;28.83;;
68074;SDS011;54864;52.002;5.468;2023-09-12T04:38:37;38.50;;;29.25;;
68074;SDS011;54864;52.002;5.468;2023-09-12T04:39:38;39.55;;;29.85;;
68074;SDS011;54864;52.002;5.468;2023-09-12T04:40:39;39.35;;;29.50;;
68074;SDS011;54864;52.002;5.468;2023-09-12T04:41:40;39.80;;;28.53;;
68074;SDS011;54864;52.002;5.468;2023-09-12T04:42:42;36.47;;;27.05;;
68074;SDS011;54864;52.002;5.468;2023-09-12T04:43:43;41.83;;;30.92;;
68074;SDS011;54864;52.002;5.468;2023-09-12T04:44:45;44.08;;;30.58;;
68074;SDS011;54864;52.002;5.468;2023-09-12T04:45:46;40.78;;;28.58;;
68074;SDS011;54864;52.002;5.468;2023-09-12T04:46:48;39.75;;;30.75;;
68074;SDS011;54864;52.002;5.468;2023-09-12T04:47:49;41.88;;;31.90;;
68074;SDS011;54864;52.002;5.468;2023-09-12T04:48:52;47.83;;;31.45;;
68074;SDS011;54864;52.002;5.468;2023-09-12T04:49:53;43.30;;;31.50;;
68074;SDS011;54864;52.002;5.468;2023-09-12T04:50:55;38.47;;;29.63;;
68074;SDS011;54864;52.002;5.468;2023-09-12T04:51:56;36.58;;;28.80;;
68074;SDS011;54864;52.002;5.468;2023-09-12T04:52:58;37.50;;;28.47;;
68074;SDS011;54864;52.002;5.468;2023-09-12T04:53:59;43.28;;;30.75;;
68074;SDS011;54864;52.002;5.468;2023-09-12T04:55:01;38.20;;;29.13;;
68074;SDS011;54864;52.002;5.468;2023-09-12T04:56:02;43.63;;;31.10;;
68074;SDS011;54864;52.002;5.468;2023-09-12T04:57:04;40.78;;;30.13;;
68074;SDS011;54864;52.002;5.468;2023-09-12T04:58:05;42.22;;;30.27;;
68074;SDS011;54864;52.002;5.468;2023-09-12T04:59:07;44.03;;;30.35;;
68074;SDS011;54864;52.002;5.468;2023-09-12T05:00:08;41.53;;;31.15;;
68074;SDS011;54864;52.002;5.468;2023-09-12T05:01:11;51.45;;;35.13;;
68074;SDS011;54864;52.002;5.468;2023-09-12T05:02:12;49.42;;;34.47;;
68074;SDS011;54864;52.002;5.468;2023-09-12T05:03:13;51.92;;;35.50;;
68074;SDS011;54864;52.002;5.468;2023-09-12T05:04:17;51.22;;;34.13;;
68074;SDS011;54864;52.002;5.468;2023-09-12T05:05:18;57.58;;;35.33;;
68074;SDS011;54864;52.002;5.468;2023-09-12T05:06:19;51.58;;;34.67;;
68074;SDS011;54864;52.002;5.468;2023-09-12T05:07:20;52.72;;;33.10;;
68074;SDS011;54864;52.002;5.468;2023-09-12T05:08:22;55.30;;;33.92;;
68074;SDS011;54864;52.002;5.468;2023-09-12T05:09:23;57.17;;;34.72;;
68074;SDS011;54864;52.002;5.468;2023-09-12T05:10:25;49.85;;;33.45;;
68074;SDS011;54864;52.002;5.468;2023-09-12T05:11:26;47.65;;;34.33;;
68074;SDS011;54864;52.002;5.468;2023-09-12T05:12:28;55.10;;;34.65;;
68074;SDS011;54864;52.002;5.468;2023-09-12T05:13:28;53.97;;;34.20;;
68074;SDS011;54864;52.002;5.468;2023-09-12T05:14:29;54.27;;;34.07;;
68074;SDS011;54864;52.002;5.468;2023-09-12T05:15:31;48.13;;;33.00;;
68074;SDS011;54864;52.002;5.468;2023-09-12T05:16:32;44.35;;;32.13;;
68074;SDS011;54864;52.002;5.468;2023-09-12T05:17:34;50.70;;;34.28;;
68074;SDS011;54864;52.002;5.468;2023-09-12T05:18:34;53.47;;;33.87;;
68074;SDS011;54864;52.002;5.468;2023-09-12T05:19:38;50.58;;;34.42;;
68074;SDS011;54864;52.002;5.468;2023-09-12T05:20:39;46.10;;;33.30;;
68074;SDS011;54864;52.002;5.468;2023-09-12T05:21:40;43.40;;;32.85;;
68074;SDS011;54864;52.002;5.468;2023-09-12T05:22:41;51.72;;;32.80;;
68074;SDS011;54864;52.002;5.468;2023-09-12T05:23:43;44.77;;;30.37;;
68074;SDS011;54864;52.002;5.468;2023-09-12T05:24:44;52.83;;;31.95;;
68074;SDS011;54864;52.002;5.468;2023-09-12T05:25:46;44.55;;;30.88;;
68074;SDS011;54864;52.002;5.468;2023-09-12T05:26:46;49.28;;;32.20;;
68074;SDS011;54864;52.002;5.468;2023-09-12T05:27:49;53.08;;;31.98;;
68074;SDS011;54864;52.002;5.468;2023-09-12T05:28:50;46.03;;;30.93;;
68074;SDS011;54864;52.002;5.468;2023-09-12T05:29:52;49.72;;;32.13;;
68074;SDS011;54864;52.002;5.468;2023-09-12T05:30:53;45.60;;;33.17;;
68074;SDS011;54864;52.002;5.468;2023-09-12T05:31:55;46.97;;;33.05;;
68074;SDS011;54864;52.002;5.468;2023-09-12T05:32:56;50.45;;;33.22;;
68074;SDS011;54864;52.002;5.468;2023-09-12T05:33:58;43.17;;;32.83;;
68074;SDS011;54864;52.002;5.468;2023-09-12T05:35:00;49.03;;;34.53;;
68074;SDS011;54864;52.002;5.468;2023-09-12T05:36:02;57.13;;;33.40;;
68074;SDS011;54864;52.002;5.468;2023-09-12T05:37:03;43.40;;;32.78;;
68074;SDS011;54864;52.002;5.468;2023-09-12T05:38:05;48.25;;;33.88;;
68074;SDS011;54864;52.002;5.468;2023-09-12T05:39:05;42.63;;;32.88;;
68074;SDS011;54864;52.002;5.468;2023-09-12T05:40:08;40.22;;;33.13;;
68074;SDS011;54864;52.002;5.468;2023-09-12T05:41:10;43.75;;;33.33;;
68074;SDS011;54864;52.002;5.468;2023-09-12T05:42:12;43.35;;;33.30;;
68074;SDS011;54864;52.002;5.468;2023-09-12T05:43:15;53.05;;;35.35;;
68074;SDS011;54864;52.002;5.468;2023-09-12T05:44:17;51.42;;;34.35;;
68074;SDS011;54864;52.002;5.468;2023-09-12T05:45:19;47.55;;;35.05;;
68074;SDS011;54864;52.002;5.468;2023-09-12T05:46:20;42.85;;;34.72;;
68074;SDS011;54864;52.002;5.468;2023-09-12T05:47:21;47.42;;;35.10;;
68074;SDS011;54864;52.002;5.468;2023-09-12T05:48:23;41.65;;;33.92;;
68074;SDS011;54864;52.002;5.468;2023-09-12T05:49:24;42.22;;;34.83;;
68074;SDS011;54864;52.002;5.468;2023-09-12T05:50:27;46.05;;;34.20;;
68074;SDS011;54864;52.002;5.468;2023-09-12T05:51:28;42.33;;;33.53;;
68074;SDS011;54864;52.002;5.468;2023-09-12T05:52:30;44.80;;;35.13;;
68074;SDS011;54864;52.002;5.468;2023-09-12T05:53:31;43.70;;;35.63;;
68074;SDS011;54864;52.002;5.468;2023-09-12T05:54:33;43.55;;;34.30;;
68074;SDS011;54864;52.002;5.468;2023-09-12T05:55:33;55.55;;;36.63;;
68074;SDS011;54864;52.002;5.468;2023-09-12T05:56:35;52.10;;;36.92;;
68074;SDS011;54864;52.002;5.468;2023-09-12T05:57:36;45.15;;;36.03;;
68074;SDS011;54864;52.002;5.468;2023-09-12T05:58:37;43.83;;;35.70;;
68074;SDS011;54864;52.002;5.468;2023-09-12T05:59:42;44.15;;;34.75;;
68074;SDS011;54864;52.002;5.468;2023-09-12T06:00:43;51.13;;;35.40;;
68074;SDS011;54864;52.002;5.468;2023-09-12T06:01:47;49.60;;;35.33;;
68074;SDS011;54864;52.002;5.468;2023-09-12T06:02:48;47.67;;;35.22;;